sensor_id;sensor_type;location;lat;lon;timestamp;temperature;humidity
11647;DHT22;5880;52.342;9.662;2022-09-09T00:02:24;19.10;70.10
11647;DHT22;5880;52.342;9.662;2022-09-09T00:05:14;19.10;70.30
11647;DHT22;5880;52.342;9.662;2022-09-09T00:07:53;19.00;70.00
11647;DHT22;5880;52.342;9.662;2022-09-09T00:10:39;19.00;69.90
11647;DHT22;5880;52.342;9.662;2022-09-09T00:16:01;18.90;69.90
11647;DHT22;5880;52.342;9.662;2022-09-09T00:32:16;18.80;70.00
11647;DHT22;5880;52.342;9.662;2022-09-09T00:34:56;18.80;70.00
11647;DHT22;5880;52.342;9.662;2022-09-09T00:37:28;18.80;70.10
11647;DHT22;5880;52.342;9.662;2022-09-09T00:39:59;18.80;70.00
11647;DHT22;5880;52.342;9.662;2022-09-09T00:42:42;18.80;70.00
11647;DHT22;5880;52.342;9.662;2022-09-09T00:45:24;18.80;70.00
11647;DHT22;5880;52.342;9.662;2022-09-09T00:48:13;18.70;69.90
11647;DHT22;5880;52.342;9.662;2022-09-09T00:50:57;18.70;69.80
11647;DHT22;5880;52.342;9.662;2022-09-09T00:56:42;18.70;69.80
11647;DHT22;5880;52.342;9.662;2022-09-09T00:59:50;18.70;69.80
11647;DHT22;5880;52.342;9.662;2022-09-09T01:05:26;18.60;69.80
11647;DHT22;5880;52.342;9.662;2022-09-09T01:07:53;18.60;69.60
11647;DHT22;5880;52.342;9.662;2022-09-09T01:10:49;18.50;69.60
11647;DHT22;5880;52.342;9.662;2022-09-09T01:13:36;18.50;69.80
11647;DHT22;5880;52.342;9.662;2022-09-09T01:16:03;18.50;69.90
11647;DHT22;5880;52.342;9.662;2022-09-09T01:18:37;18.50;69.80
11647;DHT22;5880;52.342;9.662;2022-09-09T01:27:06;18.50;70.20
11647;DHT22;5880;52.342;9.662;2022-09-09T01:29:34;18.50;69.90
11647;DHT22;5880;52.342;9.662;2022-09-09T01:32:37;18.40;69.80
11647;DHT22;5880;52.342;9.662;2022-09-09T01:35:14;18.40;69.90
11647;DHT22;5880;52.342;9.662;2022-09-09T01:37:41;18.40;69.90
11647;DHT22;5880;52.342;9.662;2022-09-09T01:40:07;18.40;69.80
11647;DHT22;5880;52.342;9.662;2022-09-09T01:42:34;18.40;69.80
11647;DHT22;5880;52.342;9.662;2022-09-09T01:45:00;18.40;69.80
11647;DHT22;5880;52.342;9.662;2022-09-09T01:47:26;18.40;69.80
11647;DHT22;5880;52.342;9.662;2022-09-09T01:49:52;18.40;69.80
11647;DHT22;5880;52.342;9.662;2022-09-09T01:52:18;18.30;69.80
11647;DHT22;5880;52.342;9.662;2022-09-09T01:54:43;18.30;69.90
11647;DHT22;5880;52.342;9.662;2022-09-09T01:57:21;18.30;69.90
11647;DHT22;5880;52.342;9.662;2022-09-09T02:00:09;18.30;70.00
11647;DHT22;5880;52.342;9.662;2022-09-09T02:03:44;18.30;70.10
11647;DHT22;5880;52.342;9.662;2022-09-09T02:06:14;18.30;69.90
11647;DHT22;5880;52.342;9.662;2022-09-09T02:08:47;18.30;69.90
11647;DHT22;5880;52.342;9.662;2022-09-09T02:11:20;18.30;69.90
11647;DHT22;5880;52.342;9.662;2022-09-09T02:13:52;18.20;69.90
11647;DHT22;5880;52.342;9.662;2022-09-09T02:19:19;18.30;70.40
11647;DHT22;5880;52.342;9.662;2022-09-09T02:21:55;18.30;70.20
11647;DHT22;5880;52.342;9.662;2022-09-09T02:24:23;18.30;70.20
11647;DHT22;5880;52.342;9.662;2022-09-09T02:26:52;18.40;70.30
11647;DHT22;5880;52.342;9.662;2022-09-09T02:29:34;18.20;70.20
11647;DHT22;5880;52.342;9.662;2022-09-09T02:32:06;18.30;70.40
11647;DHT22;5880;52.342;9.662;2022-09-09T02:34:48;18.30;70.20
11647;DHT22;5880;52.342;9.662;2022-09-09T02:37:20;18.30;70.30
11647;DHT22;5880;52.342;9.662;2022-09-09T02:39:50;18.30;70.20
11647;DHT22;5880;52.342;9.662;2022-09-09T02:42:16;18.30;70.20
11647;DHT22;5880;52.342;9.662;2022-09-09T02:44:42;18.30;70.20
11647;DHT22;5880;52.342;9.662;2022-09-09T02:50:08;18.30;70.40
11647;DHT22;5880;52.342;9.662;2022-09-09T02:55:39;18.30;70.30
11647;DHT22;5880;52.342;9.662;2022-09-09T02:58:13;18.30;70.20
11647;DHT22;5880;52.342;9.662;2022-09-09T03:00:48;18.30;70.20
11647;DHT22;5880;52.342;9.662;2022-09-09T03:03:16;18.30;70.40
11647;DHT22;5880;52.342;9.662;2022-09-09T03:05:45;18.30;70.30
11647;DHT22;5880;52.342;9.662;2022-09-09T03:08:11;18.30;70.40
11647;DHT22;5880;52.342;9.662;2022-09-09T03:10:38;18.30;70.40
11647;DHT22;5880;52.342;9.662;2022-09-09T03:13:04;18.30;70.40
11647;DHT22;5880;52.342;9.662;2022-09-09T03:15:31;18.30;70.50
11647;DHT22;5880;52.342;9.662;2022-09-09T03:17:58;18.30;70.60
11647;DHT22;5880;52.342;9.662;2022-09-09T03:20:26;18.40;70.60
11647;DHT22;5880;52.342;9.662;2022-09-09T03:22:53;18.40;70.60
11647;DHT22;5880;52.342;9.662;2022-09-09T03:25:20;18.40;70.50
11647;DHT22;5880;52.342;9.662;2022-09-09T03:27:46;18.40;70.50
11647;DHT22;5880;52.342;9.662;2022-09-09T03:30:12;18.50;70.60
11647;DHT22;5880;52.342;9.662;2022-09-09T03:32:37;18.40;70.40
11647;DHT22;5880;52.342;9.662;2022-09-09T03:35:04;18.40;70.40
11647;DHT22;5880;52.342;9.662;2022-09-09T03:37:30;18.40;70.50
11647;DHT22;5880;52.342;9.662;2022-09-09T03:39:57;18.40;70.50
11647;DHT22;5880;52.342;9.662;2022-09-09T03:42:22;18.50;70.60
11647;DHT22;5880;52.342;9.662;2022-09-09T03:44:48;18.40;70.60
11647;DHT22;5880;52.342;9.662;2022-09-09T03:47:20;18.50;70.70
11647;DHT22;5880;52.342;9.662;2022-09-09T03:49:47;18.40;70.70
11647;DHT22;5880;52.342;9.662;2022-09-09T03:52:14;18.40;70.70
11647;DHT22;5880;52.342;9.662;2022-09-09T03:54:40;18.50;70.90
11647;DHT22;5880;52.342;9.662;2022-09-09T03:57:11;18.50;70.90
11647;DHT22;5880;52.342;9.662;2022-09-09T03:59:37;18.60;71.70
11647;DHT22;5880;52.342;9.662;2022-09-09T04:02:03;18.60;70.90
11647;DHT22;5880;52.342;9.662;2022-09-09T04:04:29;18.60;71.00
11647;DHT22;5880;52.342;9.662;2022-09-09T04:06:55;18.60;70.90
11647;DHT22;5880;52.342;9.662;2022-09-09T04:09:21;18.60;71.00
11647;DHT22;5880;52.342;9.662;2022-09-09T04:11:46;18.60;71.00
11647;DHT22;5880;52.342;9.662;2022-09-09T04:14:13;18.70;71.10
11647;DHT22;5880;52.342;9.662;2022-09-09T04:16:38;18.70;71.10
11647;DHT22;5880;52.342;9.662;2022-09-09T04:19:05;18.70;71.10
11647;DHT22;5880;52.342;9.662;2022-09-09T04:21:32;18.70;71.00
11647;DHT22;5880;52.342;9.662;2022-09-09T04:23:57;18.80;71.00
11647;DHT22;5880;52.342;9.662;2022-09-09T04:26:24;18.70;71.10
11647;DHT22;5880;52.342;9.662;2022-09-09T04:28:49;18.80;71.00
11647;DHT22;5880;52.342;9.662;2022-09-09T04:31:20;18.80;71.00
11647;DHT22;5880;52.342;9.662;2022-09-09T04:33:49;18.80;71.00
11647;DHT22;5880;52.342;9.662;2022-09-09T04:36:16;18.80;70.80
11647;DHT22;5880;52.342;9.662;2022-09-09T04:38:44;18.80;70.70
11647;DHT22;5880;52.342;9.662;2022-09-09T04:41:11;18.80;70.80
11647;DHT22;5880;52.342;9.662;2022-09-09T04:43:39;18.80;70.80
11647;DHT22;5880;52.342;9.662;2022-09-09T04:46:05;18.80;70.90
11647;DHT22;5880;52.342;9.662;2022-09-09T04:48:31;18.80;70.80
11647;DHT22;5880;52.342;9.662;2022-09-09T04:51:05;18.80;70.70
11647;DHT22;5880;52.342;9.662;2022-09-09T04:53:32;18.90;70.90
11647;DHT22;5880;52.342;9.662;2022-09-09T04:56:06;18.90;70.90
11647;DHT22;5880;52.342;9.662;2022-09-09T04:58:38;18.90;71.20
11647;DHT22;5880;52.342;9.662;2022-09-09T05:01:19;18.90;71.00
11647;DHT22;5880;52.342;9.662;2022-09-09T05:03:47;18.90;70.90
11647;DHT22;5880;52.342;9.662;2022-09-09T05:06:17;18.90;70.80
11647;DHT22;5880;52.342;9.662;2022-09-09T05:08:45;18.90;70.80
11647;DHT22;5880;52.342;9.662;2022-09-09T05:11:19;19.00;70.80
11647;DHT22;5880;52.342;9.662;2022-09-09T05:13:48;19.10;70.80
11647;DHT22;5880;52.342;9.662;2022-09-09T05:16:16;19.00;70.70
11647;DHT22;5880;52.342;9.662;2022-09-09T05:18:43;19.00;70.70
11647;DHT22;5880;52.342;9.662;2022-09-09T05:21:12;19.00;70.80
11647;DHT22;5880;52.342;9.662;2022-09-09T05:23:39;19.00;70.80
11647;DHT22;5880;52.342;9.662;2022-09-09T05:26:06;19.00;70.80
11647;DHT22;5880;52.342;9.662;2022-09-09T05:28:36;19.00;70.80
11647;DHT22;5880;52.342;9.662;2022-09-09T05:31:05;19.10;70.90
11647;DHT22;5880;52.342;9.662;2022-09-09T05:33:36;19.10;70.80
11647;DHT22;5880;52.342;9.662;2022-09-09T05:36:08;19.10;70.80
11647;DHT22;5880;52.342;9.662;2022-09-09T05:38:42;19.10;70.80
11647;DHT22;5880;52.342;9.662;2022-09-09T05:41:08;19.10;70.80
11647;DHT22;5880;52.342;9.662;2022-09-09T05:43:37;19.10;70.90
11647;DHT22;5880;52.342;9.662;2022-09-09T05:46:08;19.20;70.90
11647;DHT22;5880;52.342;9.662;2022-09-09T05:48:37;19.20;70.90
11647;DHT22;5880;52.342;9.662;2022-09-09T05:51:10;19.20;70.70
11647;DHT22;5880;52.342;9.662;2022-09-09T05:53:38;19.10;70.70
11647;DHT22;5880;52.342;9.662;2022-09-09T05:56:09;19.20;70.70
11647;DHT22;5880;52.342;9.662;2022-09-09T05:58:36;19.10;70.80
11647;DHT22;5880;52.342;9.662;2022-09-09T06:01:07;19.10;70.80
11647;DHT22;5880;52.342;9.662;2022-09-09T06:03:39;19.10;71.60
11647;DHT22;5880;52.342;9.662;2022-09-09T06:06:08;19.20;70.80
11647;DHT22;5880;52.342;9.662;2022-09-09T06:08:38;19.20;70.80
11647;DHT22;5880;52.342;9.662;2022-09-09T06:11:10;19.20;70.90
11647;DHT22;5880;52.342;9.662;2022-09-09T06:13:41;19.20;70.90
11647;DHT22;5880;52.342;9.662;2022-09-09T06:16:09;19.20;70.90
11647;DHT22;5880;52.342;9.662;2022-09-09T06:18:36;19.30;71.10
11647;DHT22;5880;52.342;9.662;2022-09-09T06:21:08;19.30;71.00
11647;DHT22;5880;52.342;9.662;2022-09-09T06:23:36;19.30;71.00
11647;DHT22;5880;52.342;9.662;2022-09-09T06:28:47;19.30;70.90
11647;DHT22;5880;52.342;9.662;2022-09-09T06:31:16;19.30;70.90
11647;DHT22;5880;52.342;9.662;2022-09-09T06:33:46;19.30;70.90
11647;DHT22;5880;52.342;9.662;2022-09-09T06:36:15;19.30;70.90
11647;DHT22;5880;52.342;9.662;2022-09-09T06:38:43;19.30;71.00
11647;DHT22;5880;52.342;9.662;2022-09-09T06:41:11;19.30;71.00
11647;DHT22;5880;52.342;9.662;2022-09-09T06:43:38;19.30;71.10
11647;DHT22;5880;52.342;9.662;2022-09-09T06:46:05;19.50;71.20
11647;DHT22;5880;52.342;9.662;2022-09-09T06:48:34;19.40;71.30
11647;DHT22;5880;52.342;9.662;2022-09-09T06:51:01;19.40;71.40
11647;DHT22;5880;52.342;9.662;2022-09-09T06:53:33;19.40;71.60
11647;DHT22;5880;52.342;9.662;2022-09-09T06:56:18;19.50;71.80
11647;DHT22;5880;52.342;9.662;2022-09-09T06:58:48;19.50;72.20
11647;DHT22;5880;52.342;9.662;2022-09-09T07:01:20;19.50;71.90
11647;DHT22;5880;52.342;9.662;2022-09-09T07:03:50;19.60;71.90
11647;DHT22;5880;52.342;9.662;2022-09-09T07:06:19;19.60;71.90
11647;DHT22;5880;52.342;9.662;2022-09-09T07:08:51;19.60;72.00
11647;DHT22;5880;52.342;9.662;2022-09-09T07:11:20;19.70;72.20
11647;DHT22;5880;52.342;9.662;2022-09-09T07:13:48;19.80;72.20
11647;DHT22;5880;52.342;9.662;2022-09-09T07:16:17;19.80;72.20
11647;DHT22;5880;52.342;9.662;2022-09-09T07:18:45;19.90;72.30
11647;DHT22;5880;52.342;9.662;2022-09-09T07:21:12;20.00;72.30
11647;DHT22;5880;52.342;9.662;2022-09-09T07:23:40;20.10;72.10
11647;DHT22;5880;52.342;9.662;2022-09-09T07:26:15;20.20;72.20
11647;DHT22;5880;52.342;9.662;2022-09-09T07:28:43;20.20;71.80
11647;DHT22;5880;52.342;9.662;2022-09-09T07:31:20;20.30;71.80
11647;DHT22;5880;52.342;9.662;2022-09-09T07:33:48;20.40;71.80
11647;DHT22;5880;52.342;9.662;2022-09-09T07:36:22;20.40;71.80
11647;DHT22;5880;52.342;9.662;2022-09-09T07:38:55;20.40;71.60
11647;DHT22;5880;52.342;9.662;2022-09-09T07:41:28;20.50;71.60
11647;DHT22;5880;52.342;9.662;2022-09-09T07:44:07;20.50;71.30
11647;DHT22;5880;52.342;9.662;2022-09-09T07:46:36;20.60;71.00
11647;DHT22;5880;52.342;9.662;2022-09-09T07:49:04;20.60;71.20
11647;DHT22;5880;52.342;9.662;2022-09-09T07:51:32;20.70;71.30
11647;DHT22;5880;52.342;9.662;2022-09-09T07:54:05;20.70;71.10
11647;DHT22;5880;52.342;9.662;2022-09-09T07:56:34;20.80;71.10
11647;DHT22;5880;52.342;9.662;2022-09-09T07:59:02;20.80;71.00
11647;DHT22;5880;52.342;9.662;2022-09-09T08:04:03;20.90;70.70
11647;DHT22;5880;52.342;9.662;2022-09-09T08:06:38;21.00;70.70
11647;DHT22;5880;52.342;9.662;2022-09-09T08:09:06;21.10;70.40
11647;DHT22;5880;52.342;9.662;2022-09-09T08:11:34;21.10;70.60
11647;DHT22;5880;52.342;9.662;2022-09-09T08:14:01;21.10;70.60
11647;DHT22;5880;52.342;9.662;2022-09-09T08:16:30;21.20;70.50
11647;DHT22;5880;52.342;9.662;2022-09-09T08:18:59;21.20;70.80
11647;DHT22;5880;52.342;9.662;2022-09-09T08:21:27;21.40;70.10
11647;DHT22;5880;52.342;9.662;2022-09-09T08:23:56;21.30;69.80
11647;DHT22;5880;52.342;9.662;2022-09-09T08:28:55;21.40;69.50
11647;DHT22;5880;52.342;9.662;2022-09-09T08:31:25;21.40;69.50
11647;DHT22;5880;52.342;9.662;2022-09-09T08:33:56;21.40;69.40
11647;DHT22;5880;52.342;9.662;2022-09-09T08:36:26;21.50;69.30
11647;DHT22;5880;52.342;9.662;2022-09-09T08:38:55;21.40;69.20
11647;DHT22;5880;52.342;9.662;2022-09-09T08:47:32;21.50;68.60
11647;DHT22;5880;52.342;9.662;2022-09-09T08:58:32;21.50;69.00
11647;DHT22;5880;52.342;9.662;2022-09-09T09:03:37;21.60;68.40
11647;DHT22;5880;52.342;9.662;2022-09-09T09:09:21;21.60;68.40
11647;DHT22;5880;52.342;9.662;2022-09-09T09:11:59;21.60;68.20
11647;DHT22;5880;52.342;9.662;2022-09-09T09:14:35;21.60;68.50
11647;DHT22;5880;52.342;9.662;2022-09-09T09:17:06;21.70;68.60
11647;DHT22;5880;52.342;9.662;2022-09-09T09:19:46;21.70;68.30
11647;DHT22;5880;52.342;9.662;2022-09-09T09:22:34;21.70;67.80
11647;DHT22;5880;52.342;9.662;2022-09-09T09:25:24;21.80;67.90
11647;DHT22;5880;52.342;9.662;2022-09-09T09:31:10;21.80;67.90
11647;DHT22;5880;52.342;9.662;2022-09-09T09:33:49;21.80;68.00
11647;DHT22;5880;52.342;9.662;2022-09-09T09:36:19;21.90;67.50
11647;DHT22;5880;52.342;9.662;2022-09-09T09:38:59;21.90;68.20
11647;DHT22;5880;52.342;9.662;2022-09-09T09:41:31;21.90;67.60
11647;DHT22;5880;52.342;9.662;2022-09-09T09:44:00;22.00;67.90
11647;DHT22;5880;52.342;9.662;2022-09-09T09:46:27;22.00;67.90
11647;DHT22;5880;52.342;9.662;2022-09-09T09:49:00;22.10;68.00
11647;DHT22;5880;52.342;9.662;2022-09-09T09:51:30;22.10;67.70
11647;DHT22;5880;52.342;9.662;2022-09-09T09:54:27;22.10;67.90
11647;DHT22;5880;52.342;9.662;2022-09-09T09:56:55;22.20;66.90
11647;DHT22;5880;52.342;9.662;2022-09-09T10:01:54;22.30;67.50
11647;DHT22;5880;52.342;9.662;2022-09-09T10:04:39;22.30;67.70
11647;DHT22;5880;52.342;9.662;2022-09-09T10:07:20;22.40;67.50
11647;DHT22;5880;52.342;9.662;2022-09-09T10:09:55;22.50;66.40
11647;DHT22;5880;52.342;9.662;2022-09-09T10:12:36;22.50;65.90
11647;DHT22;5880;52.342;9.662;2022-09-09T10:18:52;22.60;65.40
11647;DHT22;5880;52.342;9.662;2022-09-09T10:21:40;22.60;65.30
11647;DHT22;5880;52.342;9.662;2022-09-09T10:24:27;22.70;64.70
11647;DHT22;5880;52.342;9.662;2022-09-09T10:30:23;22.70;64.70
11647;DHT22;5880;52.342;9.662;2022-09-09T10:33:09;22.70;65.30
11647;DHT22;5880;52.342;9.662;2022-09-09T10:36:01;22.70;64.60
11647;DHT22;5880;52.342;9.662;2022-09-09T10:38:42;22.70;64.10
11647;DHT22;5880;52.342;9.662;2022-09-09T10:41:18;22.60;64.60
11647;DHT22;5880;52.342;9.662;2022-09-09T10:46:43;22.60;64.30
11647;DHT22;5880;52.342;9.662;2022-09-09T10:50:12;22.60;64.10
11647;DHT22;5880;52.342;9.662;2022-09-09T10:55:52;22.50;64.10
11647;DHT22;5880;52.342;9.662;2022-09-09T10:58:30;22.50;64.50
11647;DHT22;5880;52.342;9.662;2022-09-09T11:01:12;22.50;64.50
11647;DHT22;5880;52.342;9.662;2022-09-09T11:03:49;22.40;64.60
11647;DHT22;5880;52.342;9.662;2022-09-09T11:06:32;22.40;64.70
11647;DHT22;5880;52.342;9.662;2022-09-09T11:09:16;22.40;65.00
11647;DHT22;5880;52.342;9.662;2022-09-09T11:11:56;22.30;65.20
11647;DHT22;5880;52.342;9.662;2022-09-09T11:14:44;22.40;65.50
11647;DHT22;5880;52.342;9.662;2022-09-09T11:17:26;22.20;65.80
11647;DHT22;5880;52.342;9.662;2022-09-09T11:19:59;22.20;66.00
11647;DHT22;5880;52.342;9.662;2022-09-09T11:22:31;22.10;65.90
11647;DHT22;5880;52.342;9.662;2022-09-09T11:25:06;22.00;66.20
11647;DHT22;5880;52.342;9.662;2022-09-09T11:27:55;21.90;66.30
11647;DHT22;5880;52.342;9.662;2022-09-09T11:33:33;21.80;67.00
11647;DHT22;5880;52.342;9.662;2022-09-09T11:42:38;21.40;64.50
11647;DHT22;5880;52.342;9.662;2022-09-09T11:45:23;21.30;64.60
11647;DHT22;5880;52.342;9.662;2022-09-09T11:47:52;21.20;64.50
11647;DHT22;5880;52.342;9.662;2022-09-09T11:52:47;21.00;64.80
11647;DHT22;5880;52.342;9.662;2022-09-09T11:55:34;20.90;65.10
11647;DHT22;5880;52.342;9.662;2022-09-09T12:00:40;20.70;66.00
11647;DHT22;5880;52.342;9.662;2022-09-09T12:03:40;20.70;66.00
11647;DHT22;5880;52.342;9.662;2022-09-09T12:06:42;20.60;66.60
11647;DHT22;5880;52.342;9.662;2022-09-09T12:09:18;20.50;66.70
11647;DHT22;5880;52.342;9.662;2022-09-09T12:14:43;20.50;67.00
11647;DHT22;5880;52.342;9.662;2022-09-09T12:17:45;20.50;67.40
11647;DHT22;5880;52.342;9.662;2022-09-09T12:29:34;20.70;69.20
11647;DHT22;5880;52.342;9.662;2022-09-09T12:32:15;20.80;69.40
11647;DHT22;5880;52.342;9.662;2022-09-09T12:40:23;21.20;69.30
11647;DHT22;5880;52.342;9.662;2022-09-09T12:42:51;21.40;69.00
11647;DHT22;5880;52.342;9.662;2022-09-09T12:45:19;21.50;68.90
11647;DHT22;5880;52.342;9.662;2022-09-09T12:48:07;21.60;68.30
11647;DHT22;5880;52.342;9.662;2022-09-09T12:50:42;21.70;67.00
11647;DHT22;5880;52.342;9.662;2022-09-09T12:53:15;21.80;67.60
11647;DHT22;5880;52.342;9.662;2022-09-09T12:55:51;21.90;67.20
11647;DHT22;5880;52.342;9.662;2022-09-09T12:58:19;22.00;66.90
11647;DHT22;5880;52.342;9.662;2022-09-09T13:00:53;21.90;67.10
11647;DHT22;5880;52.342;9.662;2022-09-09T13:03:23;22.00;66.80
11647;DHT22;5880;52.342;9.662;2022-09-09T13:05:51;22.00;66.80
11647;DHT22;5880;52.342;9.662;2022-09-09T13:08:19;22.00;66.80
11647;DHT22;5880;52.342;9.662;2022-09-09T13:11:01;22.10;66.90
11647;DHT22;5880;52.342;9.662;2022-09-09T13:13:37;22.10;66.40
11647;DHT22;5880;52.342;9.662;2022-09-09T13:16:17;22.10;66.60
11647;DHT22;5880;52.342;9.662;2022-09-09T13:18:45;22.10;66.80
11647;DHT22;5880;52.342;9.662;2022-09-09T13:21:12;22.10;66.80
11647;DHT22;5880;52.342;9.662;2022-09-09T13:23:38;22.10;66.70
11647;DHT22;5880;52.342;9.662;2022-09-09T13:26:06;22.10;66.60
11647;DHT22;5880;52.342;9.662;2022-09-09T13:28:47;22.10;66.50
11647;DHT22;5880;52.342;9.662;2022-09-09T13:33:55;22.00;66.50
11647;DHT22;5880;52.342;9.662;2022-09-09T13:36:32;22.00;66.50
11647;DHT22;5880;52.342;9.662;2022-09-09T13:39:02;22.00;66.60
11647;DHT22;5880;52.342;9.662;2022-09-09T13:41:52;22.00;67.20
11647;DHT22;5880;52.342;9.662;2022-09-09T13:44:24;22.00;66.30
11647;DHT22;5880;52.342;9.662;2022-09-09T13:49:45;22.00;67.50
11647;DHT22;5880;52.342;9.662;2022-09-09T13:52:12;21.90;66.50
11647;DHT22;5880;52.342;9.662;2022-09-09T13:54:40;21.90;66.60
11647;DHT22;5880;52.342;9.662;2022-09-09T13:57:15;21.90;66.80
11647;DHT22;5880;52.342;9.662;2022-09-09T13:59:46;21.90;66.50
11647;DHT22;5880;52.342;9.662;2022-09-09T14:02:13;21.90;66.60
11647;DHT22;5880;52.342;9.662;2022-09-09T14:04:39;21.90;66.50
11647;DHT22;5880;52.342;9.662;2022-09-09T14:07:11;21.90;66.70
11647;DHT22;5880;52.342;9.662;2022-09-09T14:09:38;21.90;67.10
11647;DHT22;5880;52.342;9.662;2022-09-09T14:12:08;22.00;67.20
11647;DHT22;5880;52.342;9.662;2022-09-09T14:14:35;22.00;67.10
11647;DHT22;5880;52.342;9.662;2022-09-09T14:17:01;22.00;67.10
11647;DHT22;5880;52.342;9.662;2022-09-09T14:19:27;22.00;67.10
11647;DHT22;5880;52.342;9.662;2022-09-09T14:21:52;22.10;67.80
11647;DHT22;5880;52.342;9.662;2022-09-09T14:24:18;22.10;66.90
11647;DHT22;5880;52.342;9.662;2022-09-09T14:26:44;22.20;66.80
11647;DHT22;5880;52.342;9.662;2022-09-09T14:29:09;22.20;66.70
11647;DHT22;5880;52.342;9.662;2022-09-09T14:31:35;22.20;66.70
11647;DHT22;5880;52.342;9.662;2022-09-09T14:34:01;22.20;66.60
11647;DHT22;5880;52.342;9.662;2022-09-09T14:36:26;22.20;66.80
11647;DHT22;5880;52.342;9.662;2022-09-09T14:38:52;22.30;66.90
11647;DHT22;5880;52.342;9.662;2022-09-09T14:41:19;22.40;66.90
11647;DHT22;5880;52.342;9.662;2022-09-09T14:43:48;22.40;67.00
11647;DHT22;5880;52.342;9.662;2022-09-09T14:46:15;22.50;67.00
11647;DHT22;5880;52.342;9.662;2022-09-09T14:48:43;22.60;66.30
11647;DHT22;5880;52.342;9.662;2022-09-09T14:51:24;22.60;66.30
11647;DHT22;5880;52.342;9.662;2022-09-09T14:53:56;22.70;65.70
11647;DHT22;5880;52.342;9.662;2022-09-09T14:56:25;22.80;66.20
11647;DHT22;5880;52.342;9.662;2022-09-09T14:58:54;22.90;66.70
11647;DHT22;5880;52.342;9.662;2022-09-09T15:01:21;23.00;66.20
11647;DHT22;5880;52.342;9.662;2022-09-09T15:03:52;23.00;65.80
11647;DHT22;5880;52.342;9.662;2022-09-09T15:06:22;23.00;65.20
11647;DHT22;5880;52.342;9.662;2022-09-09T15:08:51;23.00;65.50
11647;DHT22;5880;52.342;9.662;2022-09-09T15:11:18;23.00;65.00
11647;DHT22;5880;52.342;9.662;2022-09-09T15:13:46;23.00;65.00
11647;DHT22;5880;52.342;9.662;2022-09-09T15:16:17;23.10;65.00
11647;DHT22;5880;52.342;9.662;2022-09-09T15:18:45;23.10;64.70
11647;DHT22;5880;52.342;9.662;2022-09-09T15:21:14;23.00;65.00
11647;DHT22;5880;52.342;9.662;2022-09-09T15:23:42;23.00;64.70
11647;DHT22;5880;52.342;9.662;2022-09-09T15:26:08;23.00;65.20
11647;DHT22;5880;52.342;9.662;2022-09-09T15:28:37;23.10;65.20
11647;DHT22;5880;52.342;9.662;2022-09-09T15:31:28;23.00;64.80
11647;DHT22;5880;52.342;9.662;2022-09-09T15:33:56;23.00;64.30
11647;DHT22;5880;52.342;9.662;2022-09-09T15:36:31;23.00;64.60
11647;DHT22;5880;52.342;9.662;2022-09-09T15:38:59;23.00;64.30
11647;DHT22;5880;52.342;9.662;2022-09-09T15:41:26;23.00;64.10
11647;DHT22;5880;52.342;9.662;2022-09-09T15:43:55;23.00;64.10
11647;DHT22;5880;52.342;9.662;2022-09-09T15:49:19;22.90;64.00
11647;DHT22;5880;52.342;9.662;2022-09-09T15:51:56;22.90;63.70
11647;DHT22;5880;52.342;9.662;2022-09-09T15:54:25;22.90;63.80
11647;DHT22;5880;52.342;9.662;2022-09-09T15:56:57;22.90;64.10
11647;DHT22;5880;52.342;9.662;2022-09-09T15:59:26;22.90;64.00
11647;DHT22;5880;52.342;9.662;2022-09-09T16:01:53;22.90;65.00
11647;DHT22;5880;52.342;9.662;2022-09-09T16:04:20;22.90;64.10
11647;DHT22;5880;52.342;9.662;2022-09-09T16:06:51;22.90;64.20
11647;DHT22;5880;52.342;9.662;2022-09-09T16:09:19;22.90;64.20
11647;DHT22;5880;52.342;9.662;2022-09-09T16:11:45;22.90;64.10
11647;DHT22;5880;52.342;9.662;2022-09-09T16:14:12;23.00;63.80
11647;DHT22;5880;52.342;9.662;2022-09-09T16:16:41;23.00;64.10
11647;DHT22;5880;52.342;9.662;2022-09-09T16:19:10;23.00;64.10
11647;DHT22;5880;52.342;9.662;2022-09-09T16:21:45;23.00;63.70
11647;DHT22;5880;52.342;9.662;2022-09-09T16:24:15;23.00;63.40
11647;DHT22;5880;52.342;9.662;2022-09-09T16:26:45;23.10;63.30
11647;DHT22;5880;52.342;9.662;2022-09-09T16:29:13;23.00;63.20
11647;DHT22;5880;52.342;9.662;2022-09-09T16:31:40;23.00;63.20
11647;DHT22;5880;52.342;9.662;2022-09-09T16:34:07;23.00;63.30
11647;DHT22;5880;52.342;9.662;2022-09-09T16:36:35;23.00;63.20
11647;DHT22;5880;52.342;9.662;2022-09-09T16:39:06;23.00;63.10
11647;DHT22;5880;52.342;9.662;2022-09-09T16:41:35;23.00;63.00
11647;DHT22;5880;52.342;9.662;2022-09-09T16:44:04;23.00;63.10
11647;DHT22;5880;52.342;9.662;2022-09-09T16:46:33;23.00;63.40
11647;DHT22;5880;52.342;9.662;2022-09-09T16:49:06;22.90;63.40
11647;DHT22;5880;52.342;9.662;2022-09-09T16:51:38;22.90;63.30
11647;DHT22;5880;52.342;9.662;2022-09-09T16:54:07;22.90;63.10
11647;DHT22;5880;52.342;9.662;2022-09-09T16:56:36;22.90;63.30
11647;DHT22;5880;52.342;9.662;2022-09-09T16:59:06;22.90;63.10
11647;DHT22;5880;52.342;9.662;2022-09-09T17:01:37;22.80;63.00
11647;DHT22;5880;52.342;9.662;2022-09-09T17:04:08;22.80;63.90
11647;DHT22;5880;52.342;9.662;2022-09-09T17:06:36;22.80;63.10
11647;DHT22;5880;52.342;9.662;2022-09-09T17:09:07;22.80;63.30
11647;DHT22;5880;52.342;9.662;2022-09-09T17:11:35;22.70;63.00
11647;DHT22;5880;52.342;9.662;2022-09-09T17:14:01;22.70;63.30
11647;DHT22;5880;52.342;9.662;2022-09-09T17:16:30;22.70;63.90
11647;DHT22;5880;52.342;9.662;2022-09-09T17:18:57;22.70;63.10
11647;DHT22;5880;52.342;9.662;2022-09-09T17:21:28;22.70;63.30
11647;DHT22;5880;52.342;9.662;2022-09-09T17:23:55;22.70;63.20
11647;DHT22;5880;52.342;9.662;2022-09-09T17:26:24;22.70;63.00
11647;DHT22;5880;52.342;9.662;2022-09-09T17:28:53;22.90;62.80
11647;DHT22;5880;52.342;9.662;2022-09-09T17:31:21;22.60;62.60
11647;DHT22;5880;52.342;9.662;2022-09-09T17:33:49;22.60;62.70
11647;DHT22;5880;52.342;9.662;2022-09-09T17:36:18;22.60;62.90
11647;DHT22;5880;52.342;9.662;2022-09-09T17:38:52;22.60;63.10
11647;DHT22;5880;52.342;9.662;2022-09-09T17:41:27;22.60;62.90
11647;DHT22;5880;52.342;9.662;2022-09-09T17:43:55;22.50;62.50
11647;DHT22;5880;52.342;9.662;2022-09-09T17:49:13;22.40;62.70
11647;DHT22;5880;52.342;9.662;2022-09-09T17:51:41;22.30;63.10
11647;DHT22;5880;52.342;9.662;2022-09-09T17:54:12;22.20;63.00
11647;DHT22;5880;52.342;9.662;2022-09-09T17:56:40;22.20;63.10
11647;DHT22;5880;52.342;9.662;2022-09-09T17:59:07;22.10;63.40
11647;DHT22;5880;52.342;9.662;2022-09-09T18:01:37;22.00;63.40
11647;DHT22;5880;52.342;9.662;2022-09-09T18:04:06;22.00;63.60
11647;DHT22;5880;52.342;9.662;2022-09-09T18:06:39;21.90;64.00
11647;DHT22;5880;52.342;9.662;2022-09-09T18:09:09;21.90;65.00
11647;DHT22;5880;52.342;9.662;2022-09-09T18:11:43;21.90;64.30
11647;DHT22;5880;52.342;9.662;2022-09-09T18:14:13;21.80;64.20
11647;DHT22;5880;52.342;9.662;2022-09-09T18:16:42;21.80;65.00
11647;DHT22;5880;52.342;9.662;2022-09-09T18:19:10;21.80;64.40
11647;DHT22;5880;52.342;9.662;2022-09-09T18:21:41;21.80;64.50
11647;DHT22;5880;52.342;9.662;2022-09-09T18:24:09;21.70;64.60